createdAt,value
2024-03-11T00:04:25.143Z,11.43
2024-03-11T00:09:33.322Z,10.90
2024-03-11T00:14:36.013Z,12.32
2024-03-11T00:19:40.107Z,12.05
2024-03-11T00:24:44.172Z,11.63
2024-03-11T00:29:46.817Z,11.40
2024-03-11T00:34:52.491Z,12.60
2024-03-11T00:39:55.033Z,12.10
2024-03-11T00:44:58.421Z,10.97
2024-03-11T00:50:02.329Z,12.35
2024-03-11T00:55:07.763Z,12.00
2024-03-11T01:00:12.837Z,11.93
2024-03-11T01:05:17.949Z,12.50
2024-03-11T01:10:21.103Z,11.38
2024-03-11T01:15:23.689Z,11.53
2024-03-11T01:20:27.675Z,10.00
2024-03-11T01:25:30.212Z,11.90
2024-03-11T01:30:36.090Z,10.70
2024-03-11T01:35:42.542Z,11.60
2024-03-11T01:40:45.182Z,11.90
2024-03-11T01:45:47.737Z,12.18
2024-03-11T01:50:51.783Z,11.27
2024-03-11T01:55:54.437Z,11.40
2024-03-11T02:00:57.642Z,12.05
2024-03-11T02:06:01.487Z,11.57
2024-03-11T02:11:04.097Z,11.73
2024-03-11T02:16:07.365Z,12.57
2024-03-11T02:21:12.508Z,11.60
2024-03-11T02:26:17.301Z,10.80
2024-03-11T02:31:19.873Z,11.65
2024-03-11T02:36:23.391Z,11.70
2024-03-11T02:41:27.344Z,11.00
2024-03-11T02:46:29.888Z,10.80
2024-03-11T02:51:32.506Z,11.52
2024-03-11T02:56:36.461Z,11.80
2024-03-11T03:01:39.502Z,11.68
2024-03-11T03:06:42.021Z,10.60
2024-03-11T03:11:46.008Z,11.67
2024-03-11T03:16:48.562Z,11.13
2024-03-11T03:21:51.139Z,11.27
2024-03-11T03:26:55.455Z,10.10
2024-03-11T03:31:58.598Z,10.47
2024-03-11T03:37:01.142Z,10.32
2024-03-11T03:42:06.379Z,10.43
2024-03-11T03:47:09.064Z,11.20
2024-03-11T03:52:11.640Z,10.50
2024-03-11T03:57:16.711Z,10.15
2024-03-11T04:02:19.269Z,10.33
2024-03-11T04:07:21.844Z,9.80
2024-03-11T04:12:25.750Z,9.35
2024-03-11T04:17:28.319Z,11.07
2024-03-11T04:22:30.885Z,9.87
2024-03-11T04:27:35.920Z,10.10
2024-03-11T04:32:38.502Z,10.00
2024-03-11T04:37:41.324Z,9.27
2024-03-11T04:42:45.185Z,9.77
2024-03-11T04:47:47.931Z,9.25
2024-03-11T04:52:50.513Z,11.33
2024-03-11T04:57:54.628Z,11.13
2024-03-11T05:02:57.934Z,10.13
2024-03-11T05:08:00.473Z,10.85
2024-03-11T05:13:05.399Z,10.53
2024-03-11T05:18:08.988Z,11.05
2024-03-11T05:23:11.760Z,10.07
2024-03-11T05:28:15.683Z,10.57
2024-03-11T05:33:18.681Z,11.20
2024-03-11T05:38:21.298Z,11.02
2024-03-11T05:43:25.147Z,10.33
2024-03-11T05:48:27.740Z,10.50
2024-03-11T05:53:30.610Z,10.00
2024-03-11T05:58:34.492Z,11.20
2024-03-11T06:03:37.575Z,10.30
2024-03-11T06:08:40.705Z,10.98
2024-03-11T06:13:44.718Z,10.68
2024-03-11T06:18:47.564Z,10.80
2024-03-11T06:23:50.997Z,10.05
2024-03-11T06:28:57.071Z,10.55
2024-03-11T06:33:59.623Z,10.17
2024-03-11T06:39:02.166Z,11.47
2024-03-11T06:44:07.761Z,11.32
2024-03-11T06:49:10.359Z,11.18
2024-03-11T06:54:13.108Z,11.87
2024-03-11T06:59:17.140Z,12.23
2024-03-11T07:04:21.427Z,11.60
2024-03-11T07:09:23.986Z,11.43
2024-03-11T07:14:27.925Z,11.80
2024-03-11T07:19:31.896Z,11.18
2024-03-11T07:24:35.054Z,12.30
2024-03-11T07:29:39.044Z,12.00
2024-03-11T07:34:43.353Z,11.05
2024-03-11T07:39:46.174Z,12.00
2024-03-11T07:44:50.164Z,11.60
2024-03-11T07:49:55.052Z,11.57
2024-03-11T07:54:57.584Z,11.20
2024-03-11T08:00:02.105Z,11.13
2024-03-11T08:05:05.116Z,10.77
2024-03-11T08:10:10.670Z,11.55
2024-03-11T08:15:15.852Z,12.67
2024-03-11T08:20:21.628Z,12.57
2024-03-11T08:25:28.892Z,13.70
2024-03-11T08:30:33.124Z,12.10
2024-03-11T08:35:35.720Z,11.47
2024-03-11T08:40:39.500Z,11.73
2024-03-11T08:45:43.682Z,11.75
2024-03-11T08:50:46.199Z,11.27
2024-03-11T08:55:49.951Z,11.60
2024-03-11T09:00:54.441Z,12.40
2024-03-11T09:05:57.580Z,12.20
2024-03-11T09:11:00.155Z,12.30
2024-03-11T09:16:05.709Z,11.85
2024-03-11T09:21:09.590Z,12.60
2024-03-11T09:26:12.207Z,12.13
2024-03-11T09:31:18.144Z,13.45
2024-03-11T09:36:21.047Z,14.38
2024-03-11T09:41:24.029Z,15.87
2024-03-11T09:46:29.559Z,14.50
2024-03-11T09:51:32.642Z,15.73
2024-03-11T09:56:36.480Z,16.83
2024-03-11T10:01:45.503Z,17.63
2024-03-11T10:06:57.609Z,17.00
2024-03-11T10:12:05.843Z,16.52
2024-03-11T10:17:25.130Z,16.97
2024-03-11T10:22:29.533Z,17.73
2024-03-11T10:27:34.585Z,17.20
2024-03-11T10:32:43.044Z,16.60
2024-03-11T10:37:45.794Z,15.95
2024-03-11T10:42:54.679Z,17.42
2024-03-11T10:48:01.864Z,17.20
2024-03-11T10:53:05.094Z,16.30
2024-03-11T10:58:10.888Z,17.17
2024-03-11T11:03:15.756Z,17.02
2024-03-11T11:08:23.724Z,17.70
2024-03-11T11:13:27.593Z,16.55
2024-03-11T11:18:33.760Z,16.98
2024-03-11T11:23:39.018Z,17.97
2024-03-11T11:28:41.737Z,17.25
2024-03-11T11:33:54.637Z,17.48
2024-03-11T11:38:59.394Z,16.93
2024-03-11T11:44:01.948Z,17.20
2024-03-11T11:49:18.562Z,17.38
2024-03-11T11:54:34.530Z,15.70
2024-03-11T11:59:41.629Z,16.60
2024-03-11T12:04:49.787Z,18.13
2024-03-11T12:09:53.804Z,18.35
2024-03-11T12:15:00.404Z,19.00
2024-03-11T12:20:16.161Z,18.45
2024-03-11T12:25:19.231Z,17.25
2024-03-11T12:30:25.796Z,18.67
2024-03-11T12:35:30.299Z,18.10
2024-03-11T12:40:35.974Z,18.08
2024-03-11T12:45:43.590Z,18.45
2024-03-11T12:50:48.826Z,18.70
2024-03-11T12:56:02.402Z,19.80
2024-03-11T13:01:10.699Z,18.35
2024-03-11T13:06:20.003Z,17.87
2024-03-11T13:11:24.543Z,18.75
2024-03-11T13:16:27.994Z,18.60
2024-03-11T13:21:31.957Z,19.10
2024-03-11T13:26:34.496Z,19.50
2024-03-11T13:31:38.042Z,18.13
2024-03-11T13:36:42.051Z,18.88
2024-03-11T13:41:49.934Z,19.73
2024-03-11T13:46:55.467Z,20.35
2024-03-11T13:52:01.511Z,18.73
2024-03-11T13:57:04.315Z,19.83
2024-03-11T14:02:08.219Z,19.33
2024-03-11T14:07:12.176Z,19.48
2024-03-11T14:12:14.743Z,19.77
2024-03-11T14:17:17.799Z,19.13
2024-03-11T14:22:22.873Z,19.58
2024-03-11T14:27:28.216Z,20.13
2024-03-11T14:32:31.547Z,20.33
2024-03-11T14:37:35.449Z,21.35
2024-03-11T14:42:40.666Z,20.15
2024-03-11T14:47:46.627Z,21.07
2024-03-11T14:52:50.988Z,25.85
2024-03-11T14:57:54.801Z,19.58
2024-03-11T15:02:57.472Z,22.23
2024-03-11T15:08:02.210Z,21.07
2024-03-11T15:13:06.056Z,25.90
2024-03-11T15:18:11.180Z,27.88
2024-03-11T15:23:15.216Z,28.90
2024-03-11T15:28:19.076Z,21.27
2024-03-11T15:33:22.801Z,21.13
2024-03-11T15:38:28.834Z,22.00
2024-03-11T15:43:31.827Z,37.15
2024-03-11T15:48:35.706Z,26.02
2024-03-11T15:53:41.443Z,52.50
2024-03-11T15:58:45.131Z,20.73
2024-03-11T16:03:47.826Z,20.55
2024-03-11T16:08:52.089Z,19.30
2024-03-11T16:13:57.683Z,20.43
2024-03-11T16:19:01.543Z,63.63
2024-03-11T16:24:05.655Z,32.22
2024-03-11T16:29:08.308Z,22.93
2024-03-11T16:34:11.615Z,20.55
2024-03-11T16:39:16.959Z,19.88
2024-03-11T16:44:19.935Z,20.97
2024-03-11T16:49:25.549Z,42.57
2024-03-11T16:54:29.824Z,25.42
2024-03-11T16:59:32.392Z,27.92
2024-03-11T17:04:34.906Z,29.10
2024-03-11T17:09:40.833Z,22.35
2024-03-11T17:14:43.420Z,21.73
2024-03-11T17:19:46.355Z,24.33
2024-03-11T17:24:50.264Z,22.40
2024-03-11T17:29:53.099Z,21.40
2024-03-11T17:34:55.647Z,23.33
2024-03-11T17:39:59.630Z,22.87
2024-03-11T17:45:02.393Z,24.33
2024-03-11T17:50:08.219Z,22.63
2024-03-11T17:55:15.445Z,22.57
2024-03-11T18:00:25.191Z,24.10
2024-03-11T18:05:29.047Z,30.75
2024-03-11T18:10:35.014Z,23.03
2024-03-11T18:15:37.647Z,24.02
2024-03-11T18:20:42.173Z,19.10
2024-03-11T18:25:51.060Z,18.93
2024-03-11T18:30:55.915Z,21.93
2024-03-11T18:35:59.475Z,20.35
2024-03-11T18:41:03.451Z,20.02
2024-03-11T18:46:06.616Z,20.13
2024-03-11T18:51:09.250Z,21.27
2024-03-11T18:56:16.522Z,20.38
2024-03-11T19:01:22.237Z,20.70
2024-03-11T19:06:25.818Z,21.30
2024-03-11T19:11:30.633Z,20.05
2024-03-11T19:16:33.831Z,21.00
2024-03-11T19:21:39.311Z,20.97
2024-03-11T19:26:43.402Z,20.35
2024-03-11T19:31:46.021Z,20.55
2024-03-11T19:37:25.236Z,20.80
2024-03-11T19:42:57.144Z,22.00
2024-03-11T19:48:32.746Z,22.13
2024-03-11T19:54:21.651Z,21.97
2024-03-11T19:59:57.674Z,21.92
2024-03-11T20:05:27.934Z,23.10
2024-03-11T20:10:59.693Z,22.20
2024-03-11T20:16:48.935Z,22.63
2024-03-11T20:22:19.061Z,23.60
2024-03-11T20:27:34.058Z,23.52
2024-03-11T20:32:48.555Z,22.93
2024-03-11T20:37:54.621Z,23.15
2024-03-11T20:42:58.195Z,23.83
2024-03-11T20:48:01.044Z,23.17
2024-03-11T20:53:11.395Z,22.65
2024-03-11T20:58:14.135Z,20.92
2024-03-11T21:03:17.385Z,23.40
2024-03-11T21:08:21.348Z,23.70
2024-03-11T21:13:23.892Z,23.08
2024-03-11T21:18:26.444Z,22.98
2024-03-11T21:23:38.893Z,22.50
2024-03-11T21:28:41.443Z,24.83
2024-03-11T21:33:45.154Z,22.90
2024-03-11T21:38:49.298Z,24.17
2024-03-11T21:43:51.895Z,23.30
2024-03-11T21:48:54.445Z,24.17
2024-03-11T21:53:58.406Z,24.13
2024-03-11T21:59:00.923Z,24.83
2024-03-11T22:04:03.631Z,24.80
2024-03-11T22:09:11.044Z,24.92
2024-03-11T22:14:13.721Z,22.67
2024-03-11T22:19:16.968Z,25.15
2024-03-11T22:24:20.902Z,24.20
2024-03-11T22:29:23.450Z,24.73
2024-03-11T22:34:25.986Z,24.73
2024-03-11T22:39:30.104Z,25.17
2024-03-11T22:44:32.729Z,24.97
2024-03-11T22:49:35.815Z,25.00
2024-03-11T22:54:39.896Z,26.15
2024-03-11T22:59:42.531Z,24.42
2024-03-11T23:04:49.414Z,23.20
2024-03-11T23:09:53.563Z,24.02
2024-03-11T23:14:56.994Z,24.00
2024-03-11T23:19:59.539Z,24.63
2024-03-11T23:25:04.859Z,23.73
2024-03-11T23:30:14.246Z,24.08
2024-03-11T23:35:17.097Z,22.83
2024-03-11T23:40:21.228Z,23.43
2024-03-11T23:45:24.367Z,23.73
2024-03-11T23:50:27.444Z,22.92
2024-03-11T23:55:31.314Z,24.20
